Active alerts


No alerts

Thunder radar more information blitzortung!


Rain radar more information rain snow radar



Weather Underground History page Text

Daily Summary for February 17, 2019 Units:  English    Metric   Both
« Previous Day
Next Day »
Daily Weekly Monthly Yearly Custom
  Current: High: Low: Average:
Temperature: 54.1 °F TemperatureF °F 38.7 °F 45.1 °F
Dew Point: 33.5 °F DewpointF °F 32.2 °F 37.9 °F
Humidity: 47 % Humidity % 44 % 77 %
Wind Speed: 16.3 mph WindSpeedMPH mph 0.0 mph 4.7 mph
Wind Gust: 25.1 mph WindSpeedGustMPH mph - -
Wind:SW - - SW
Pressure: 30.00 in PressureIn in 29.99 in -
Precipitation: 0.25 in      
Historical Graphs
 
 
Tabular Data for February 17, 2019
Time Temperature Dew Point Pressure Wind Wind Speed Wind Gust Humidity Rainfall Rate (Hourly)
TemperatureF °F DewpointF °F PressureIn in Calm     Humidity % HourlyPrecipIn in
00:04 39.7 °F 37.1 °F 30.14 in SE 2.5 mph 2.5 mph 90 % 0.00 in
00:09 39.6 °F 36.9 °F 30.13 in Calm     90 % 0.00 in
00:14 39.2 °F 36.7 °F 30.13 in SE 1.3 mph 2.5 mph 90 % 0.00 in
00:19 39.2 °F 36.5 °F 30.13 in Calm     90 % 0.00 in
00:24 39.0 °F 36.3 °F 30.13 in SE 1.8 mph 2.5 mph 90 % 0.00 in
00:29 38.8 °F 36.2 °F 30.13 in Calm   2.5 mph 90 % 0.00 in
00:34 38.8 °F 36.1 °F 30.12 in Calm   2.5 mph 90 % 0.00 in
00:39 38.8 °F 36.1 °F 30.12 in SE 0.9 mph 2.5 mph 90 % 0.00 in
00:44 38.7 °F 36.0 °F 30.12 in Calm   2.5 mph 90 % 0.00 in
00:49 38.7 °F 36.0 °F 30.12 in SE 1.6 mph 2.5 mph 90 % 0.00 in
00:54 38.7 °F 36.0 °F 30.12 in Calm   4.9 mph 90 % 0.00 in
00:59 38.7 °F 36.0 °F 30.12 in SE 0.2 mph 2.5 mph 90 % 0.00 in
01:04 38.7 °F 36.0 °F 30.11 in SE 2.5 mph 2.5 mph 90 % 0.00 in
01:09 38.8 °F 35.9 °F 30.11 in SE 2.9 mph 7.6 mph 88 % 0.00 in
01:14 39.0 °F 35.7 °F 30.11 in SE 0.7 mph 2.5 mph 88 % 0.00 in
01:19 39.2 °F 35.8 °F 30.12 in SE 2.5 mph 2.5 mph 88 % 0.00 in
01:24 39.4 °F 36.0 °F 30.11 in SE 2.5 mph 2.5 mph 88 % 0.00 in
01:29 39.4 °F 36.1 °F 30.11 in SE 2.2 mph 2.5 mph 88 % 0.00 in
01:34 39.6 °F 36.0 °F 30.11 in SE 2.9 mph 4.9 mph 87 % 0.00 in
01:39 39.7 °F 36.1 °F 30.10 in SE 1.8 mph 4.9 mph 87 % 0.00 in
01:44 39.9 °F 36.2 °F 30.10 in ESE 1.3 mph 7.6 mph 86 % 0.00 in
01:49 40.1 °F 36.3 °F 30.10 in SE 3.1 mph 4.9 mph 86 % 0.00 in
01:54 40.5 °F 36.2 °F 30.09 in SE 1.6 mph 2.5 mph 85 % 0.00 in
01:59 40.6 °F 36.3 °F 30.09 in SE 1.8 mph 2.5 mph 85 % 0.00 in
02:04 40.8 °F 36.5 °F 30.09 in SE 2.5 mph 7.6 mph 85 % 0.00 in
02:09 41.0 °F 36.5 °F 30.09 in SE 2.5 mph 2.5 mph 84 % 0.00 in
02:14 41.2 °F 36.6 °F 30.09 in SE 2.5 mph 4.9 mph 84 % 0.00 in
02:19 41.4 °F 36.7 °F 30.09 in SE 2.5 mph 4.9 mph 84 % 0.00 in
02:24 41.5 °F 36.9 °F 30.09 in Calm   2.5 mph 84 % 0.00 in
02:29 41.5 °F 37.3 °F 30.09 in Calm     85 % 0.00 in
02:34 41.7 °F 37.6 °F 30.08 in SE 1.3 mph 2.5 mph 86 % 0.00 in
02:39 41.7 °F 38.1 °F 30.08 in SE 2.2 mph 4.9 mph 88 % 0.01 in
02:44 41.9 °F 38.6 °F 30.09 in SW 1.6 mph 4.9 mph 89 % 0.02 in
02:49 41.9 °F 39.0 °F 30.08 in South 0.9 mph 2.5 mph 90 % 0.04 in
02:54 42.1 °F 39.2 °F 30.08 in SSW 0.7 mph 7.6 mph 90 % 0.04 in
02:59 42.3 °F 39.4 °F 30.08 in Calm     90 % 0.04 in
03:04 42.4 °F 39.6 °F 30.07 in Calm     90 % 0.04 in
03:09 42.6 °F 39.8 °F 30.07 in Calm     90 % 0.04 in
03:14 42.6 °F 39.9 °F 30.06 in SSW 2.5 mph 2.5 mph 91 % 0.04 in
03:19 42.8 °F 40.2 °F 30.05 in Calm     91 % 0.04 in
03:24 42.8 °F 40.3 °F 30.05 in SSW 0.2 mph 2.5 mph 91 % 0.04 in
03:29 42.6 °F 40.2 °F 30.05 in SSW 2.2 mph 2.5 mph 91 % 0.04 in
03:34 42.6 °F 40.1 °F 30.05 in SSW 0.2 mph 2.5 mph 91 % 0.04 in
03:39 42.4 °F 40.0 °F 30.04 in SSW 2.5 mph 2.5 mph 91 % 0.02 in
03:44 42.3 °F 39.9 °F 30.04 in SSW 2.2 mph 2.5 mph 91 % 0.01 in
03:49 42.3 °F 39.7 °F 30.04 in South 0.2 mph 2.5 mph 91 % 0.00 in
03:54 42.3 °F 39.7 °F 30.04 in Calm   2.5 mph 91 % 0.01 in
03:59 42.3 °F 39.7 °F 30.04 in Calm     91 % 0.01 in
04:04 42.3 °F 39.7 °F 30.04 in SE 4.5 mph 4.9 mph 91 % 0.04 in
04:09 42.3 °F 39.7 °F 30.04 in SE 1.3 mph 2.5 mph 91 % 0.06 in
04:14 42.3 °F 39.7 °F 30.04 in Calm   2.5 mph 91 % 0.09 in
04:19 42.3 °F 39.7 °F 30.04 in SE 3.4 mph 4.9 mph 91 % 0.11 in
04:24 42.3 °F 39.7 °F 30.03 in ESE 6.3 mph 7.6 mph 91 % 0.13 in
04:29 42.1 °F 39.7 °F 30.03 in SE 5.6 mph 12.5 mph 91 % 0.14 in
04:34 42.1 °F 39.6 °F 30.03 in SE 7.6 mph 10.1 mph 91 % 0.14 in
04:39 42.1 °F 39.6 °F 30.03 in SE 2.5 mph 7.6 mph 91 % 0.14 in
04:44 42.1 °F 39.6 °F 30.02 in SSE 3.1 mph 7.6 mph 91 % 0.14 in
04:49 41.9 °F 39.4 °F 30.03 in SSE 4.7 mph 7.6 mph 91 % 0.14 in
04:54 41.9 °F 39.4 °F 30.03 in SSE 0.7 mph 4.9 mph 91 % 0.13 in
04:59 41.9 °F 39.4 °F 30.03 in SSE 2.5 mph 2.5 mph 91 % 0.14 in
05:04 41.9 °F 39.4 °F 30.03 in Calm   4.9 mph 91 % 0.12 in
05:09 41.9 °F 39.4 °F 30.03 in SE 3.1 mph 4.9 mph 91 % 0.09 in
05:14 41.9 °F 39.4 °F 30.03 in SE 3.4 mph 4.9 mph 91 % 0.06 in
05:19 41.9 °F 39.4 °F 30.03 in SE 2.5 mph 4.9 mph 91 % 0.06 in
05:24 41.9 °F 39.4 °F 30.03 in SE 4.9 mph 7.6 mph 91 % 0.04 in
05:29 41.9 °F 39.4 °F 30.03 in Calm   2.5 mph 91 % 0.02 in
05:34 41.9 °F 39.4 °F 30.03 in SE 0.7 mph 4.9 mph 91 % 0.02 in
05:39 41.9 °F 39.4 °F 30.03 in Calm     91 % 0.02 in
05:44 42.1 °F 39.5 °F 30.02 in SE 2.2 mph 2.5 mph 91 % 0.02 in
05:49 42.1 °F 39.6 °F 30.02 in Calm   2.5 mph 91 % 0.02 in
05:54 42.1 °F 39.6 °F 30.02 in Calm     91 % 0.02 in
05:59 42.1 °F 39.6 °F 30.02 in SE 2.5 mph 2.5 mph 91 % 0.01 in
06:04 42.1 °F 39.6 °F 30.03 in Calm     91 % 0.01 in
06:09 42.1 °F 39.6 °F 30.03 in Calm     91 % 0.04 in
06:14 42.1 °F 39.6 °F 30.03 in Calm   2.5 mph 91 % 0.04 in
06:19 42.1 °F 39.6 °F 30.03 in SW 4.9 mph 17.4 mph 91 % 0.05 in
06:24 42.1 °F 39.6 °F 30.03 in Calm   7.6 mph 91 % 0.05 in
06:29 42.1 °F 39.6 °F 30.02 in Calm   2.5 mph 91 % 0.05 in
06:34 42.1 °F 39.6 °F 30.02 in Calm   2.5 mph 91 % 0.05 in
06:39 41.9 °F 39.5 °F 30.02 in SSW 0.9 mph 2.5 mph 91 % 0.05 in
06:44 41.7 °F 39.3 °F 30.01 in Calm   2.5 mph 91 % 0.05 in
06:49 41.5 °F 39.2 °F 30.02 in SSW 0.9 mph 2.5 mph 91 % 0.05 in
06:54 41.4 °F 39.1 °F 30.01 in SE 2.2 mph 4.9 mph 91 % 0.05 in
06:59 41.2 °F 38.9 °F 30.02 in SE 1.3 mph 2.5 mph 91 % 0.05 in
07:04 41.0 °F 38.7 °F 30.02 in SE 2.5 mph 2.5 mph 91 % 0.05 in
07:09 40.8 °F 38.6 °F 30.02 in Calm   4.9 mph 91 % 0.02 in
07:14 40.8 °F 38.5 °F 30.02 in Calm     91 % 0.02 in
07:19 40.6 °F 38.3 °F 30.03 in Calm     91 % 0.00 in
07:24 40.5 °F 38.2 °F 30.02 in Calm   2.5 mph 91 % 0.00 in
07:29 40.5 °F 38.1 °F 30.02 in Calm     91 % 0.00 in
07:34 40.3 °F 38.0 °F 30.02 in Calm   2.5 mph 91 % 0.00 in
07:39 40.3 °F 37.9 °F 30.03 in Calm   2.5 mph 91 % 0.00 in
07:44 40.3 °F 37.9 °F 30.03 in SSW 4.5 mph 4.9 mph 91 % 0.00 in
07:49 40.5 °F 38.0 °F 30.03 in SW 4.0 mph 10.1 mph 91 % 0.00 in
07:54 40.6 °F 38.2 °F 30.03 in SSW 0.9 mph 4.9 mph 91 % 0.00 in
07:59 40.8 °F 38.4 °F 30.03 in SSW 2.2 mph 4.9 mph 91 % 0.00 in
08:04 41.0 °F 38.6 °F 30.04 in SSW 0.7 mph 4.9 mph 91 % 0.00 in
08:09 41.4 °F 38.9 °F 30.04 in SSW 2.9 mph 4.9 mph 91 % 0.00 in
08:14 41.7 °F 39.2 °F 30.03 in SSW 0.2 mph 2.5 mph 90 % 0.00 in
08:19 42.3 °F 39.3 °F 30.04 in South 3.4 mph 4.9 mph 90 % 0.00 in
08:24 42.6 °F 39.2 °F 30.04 in SSW 2.2 mph 7.6 mph 87 % 0.00 in
08:29 43.2 °F 39.0 °F 30.03 in SW 4.5 mph 7.6 mph 85 % 0.00 in
08:34 43.7 °F 39.2 °F 30.04 in SSW 2.5 mph 4.9 mph 85 % 0.00 in
08:39 44.4 °F 39.6 °F 30.04 in SSW 0.2 mph 7.6 mph 84 % 0.00 in
08:44 45.0 °F 40.0 °F 30.04 in NW 0.2 mph 7.6 mph 83 % 0.00 in
08:49 45.5 °F 40.2 °F 30.04 in NW 2.9 mph 7.6 mph 81 % 0.00 in
08:54 46.0 °F 40.0 °F 30.04 in WSW 3.1 mph 7.6 mph 80 % 0.00 in
08:59 46.6 °F 40.2 °F 30.04 in SW 0.9 mph 7.6 mph 79 % 0.00 in
09:04 47.1 °F 40.5 °F 30.04 in West 2.9 mph 10.1 mph 79 % 0.00 in
09:09 47.5 °F 40.9 °F 30.04 in SW 2.5 mph 10.1 mph 77 % 0.00 in
09:14 47.8 °F 40.8 °F 30.04 in West 3.4 mph 12.5 mph 77 % 0.00 in
09:19 48.2 °F 41.2 °F 30.04 in West 5.6 mph 10.1 mph 77 % 0.00 in
09:24 48.4 °F 41.3 °F 30.04 in West 4.9 mph 12.5 mph 75 % 0.00 in
09:29 48.6 °F 40.5 °F 30.04 in WNW 13.2 mph 25.1 mph 72 % 0.00 in
09:34 48.7 °F 39.9 °F 30.04 in WNW 15.4 mph 22.6 mph 70 % 0.00 in
09:39 48.7 °F 39.4 °F 30.04 in West 8.1 mph 20.1 mph 70 % 0.00 in
09:44 48.9 °F 38.9 °F 30.04 in WNW 11.2 mph 15.0 mph 68 % 0.00 in
09:49 49.1 °F 39.0 °F 30.04 in West 8.5 mph 20.1 mph 68 % 0.00 in
09:54 49.3 °F 39.4 °F 30.04 in WNW 5.4 mph 12.5 mph 69 % 0.00 in
09:59 49.6 °F 39.1 °F 30.04 in West 10.3 mph 17.4 mph 65 % 0.00 in
10:04 49.8 °F 39.0 °F 30.04 in WSW 3.8 mph 15.0 mph 68 % 0.00 in
10:09 49.8 °F 38.8 °F 30.04 in SW 18.1 mph 25.1 mph 64 % 0.00 in
10:14 50.0 °F 38.3 °F 30.04 in West 5.6 mph 15.0 mph 65 % 0.00 in
10:19 50.0 °F 39.1 °F 30.04 in West 8.5 mph 17.4 mph 66 % 0.00 in
10:24 50.0 °F 39.5 °F 30.04 in West 15.4 mph 25.1 mph 65 % 0.00 in
10:29 49.8 °F 38.8 °F 30.04 in West 13.2 mph 27.5 mph 63 % 0.00 in
10:34 49.8 °F 37.9 °F 30.04 in West 6.9 mph 15.0 mph 63 % 0.00 in
10:39 50.2 °F 37.9 °F 30.04 in NW 9.2 mph 30.0 mph 63 % 0.00 in
10:44 50.4 °F 38.2 °F 30.04 in NW 10.1 mph 15.0 mph 62 % 0.00 in
10:49 50.7 °F 37.9 °F 30.04 in West 16.3 mph 30.0 mph 61 % 0.00 in
10:54 51.1 °F 38.2 °F 30.03 in WSW 11.6 mph 22.6 mph 61 % 0.00 in
10:59 51.6 °F 38.1 °F 30.04 in WNW 2.5 mph 17.4 mph 62 % 0.00 in
11:04 51.8 °F 38.7 °F 30.03 in WSW 5.6 mph 20.1 mph 60 % 0.00 in
11:09 52.0 °F 37.7 °F 30.04 in SW 4.7 mph 30.0 mph 59 % 0.00 in
11:14 52.0 °F 38.2 °F 30.04 in SW 6.3 mph 20.1 mph 59 % 0.00 in
11:19 52.0 °F 38.8 °F 30.04 in WNW 6.5 mph 15.0 mph 62 % 0.00 in
11:24 52.0 °F 38.1 °F 30.04 in West 6.3 mph 15.0 mph 59 % 0.00 in
11:29 52.0 °F 37.8 °F 30.04 in West 10.7 mph 25.1 mph 59 % 0.00 in
11:34 52.2 °F 37.5 °F 30.04 in WSW 12.3 mph 25.1 mph 57 % 0.00 in
11:39 52.2 °F 37.2 °F 30.04 in West 17.0 mph 27.5 mph 57 % 0.00 in
11:44 52.3 °F 37.3 °F 30.04 in West 8.7 mph 15.0 mph 57 % 0.00 in
11:49 52.9 °F 37.9 °F 30.03 in WNW 9.6 mph 12.5 mph 57 % 0.00 in
11:54 53.1 °F 38.5 °F 30.03 in WNW 8.5 mph 12.5 mph 56 % 0.00 in
11:59 53.2 °F 38.5 °F 30.03 in WNW 9.2 mph 20.1 mph 57 % 0.00 in
12:04 53.2 °F 38.7 °F 30.04 in NNW 9.4 mph 22.6 mph 58 % 0.00 in
12:09 53.1 °F 38.8 °F 30.03 in WSW 7.2 mph 27.5 mph 57 % 0.00 in
12:14 52.7 °F 37.9 °F 30.04 in WNW 8.7 mph 15.0 mph 57 % 0.00 in
12:19 52.5 °F 36.9 °F 30.03 in WSW 6.5 mph 25.1 mph 54 % 0.00 in
12:24 52.3 °F 35.4 °F 30.02 in NNE 14.1 mph 25.1 mph 53 % 0.00 in
12:29 52.3 °F 36.1 °F 30.03 in SW 4.9 mph 30.0 mph 54 % 0.00 in
12:34 52.5 °F 36.1 °F 30.02 in WNW 13.2 mph 22.6 mph 54 % 0.00 in
12:39 52.9 °F 36.2 °F 30.02 in WNW 15.9 mph 30.0 mph 53 % 0.00 in
12:44 53.2 °F 36.5 °F 30.02 in West 7.8 mph 17.4 mph 52 % 0.00 in
12:49 53.8 °F 36.7 °F 30.02 in WNW 10.7 mph 22.6 mph 54 % 0.00 in
12:54 53.8 °F 38.2 °F 30.02 in West 16.6 mph 20.1 mph 55 % 0.00 in
12:59 53.8 °F 38.0 °F 30.02 in West 15.4 mph 27.5 mph 55 % 0.00 in
13:04 53.6 °F 38.3 °F 30.01 in West 9.4 mph 25.1 mph 56 % 0.00 in
13:09 53.4 °F 38.5 °F 30.02 in WSW 7.8 mph 25.1 mph 58 % 0.00 in
13:14 53.1 °F 38.7 °F 30.01 in West 9.4 mph 22.6 mph 58 % 0.00 in
13:19 52.7 °F 38.4 °F 30.01 in NW 11.9 mph 22.6 mph 57 % 0.00 in
13:24 52.3 °F 37.8 °F 30.01 in NW 6.9 mph 25.1 mph 57 % 0.00 in
13:29 52.2 °F 36.4 °F 30.01 in WNW 15.4 mph 30.0 mph 54 % 0.00 in
13:34 52.2 °F 35.3 °F 30.01 in WNW 11.2 mph 22.6 mph 51 % 0.00 in
13:39 52.3 °F 34.1 °F 30.00 in WSW 18.1 mph 25.1 mph 49 % 0.00 in
13:44 52.5 °F 34.1 °F 30.00 in WSW 7.6 mph 20.1 mph 50 % 0.00 in
13:49 53.1 °F 34.2 °F 30.00 in SW 6.0 mph 22.6 mph 49 % 0.00 in
13:54 53.4 °F 34.0 °F 30.00 in WSW 12.3 mph 20.1 mph 48 % 0.00 in
13:59 53.8 °F 34.8 °F 30.00 in NNE 8.1 mph 30.0 mph 49 % 0.00 in
14:04 54.0 °F 35.5 °F 30.00 in West 15.9 mph 20.1 mph 50 % 0.00 in
14:09 54.0 °F 35.9 °F 30.00 in NW 9.4 mph 22.6 mph 50 % 0.00 in
14:14 54.1 °F 35.9 °F 30.00 in West 17.0 mph 20.1 mph 48 % 0.00 in
14:19 54.1 °F 34.4 °F 29.99 in WNW 9.6 mph 25.1 mph 46 % 0.00 in
14:24 54.0 °F 32.2 °F 30.00 in WSW 6.9 mph 17.4 mph 44 % 0.00 in
14:29 54.0 °F 32.6 °F 30.00 in NW 12.8 mph 27.5 mph 45 % 0.00 in
14:34 54.0 °F 33.5 °F 29.99 in NW 6.0 mph 20.1 mph 46 % 0.00 in
14:39 54.1 °F 33.5 °F 30.00 in SW 16.3 mph 25.1 mph 47 % 0.00 in
Mountain View, CA (Monta Loma - EW7138)
Compliments of Weather Underground - 2.75 mb

Script developed by  Jim McMurry - jmcmurry@mwt.net Adapted for the template by  Wim van der Kuil - Leuven-Template.eu

You find our weather info also at:

Weather Underground

Citizen Weather Observer Program (CWOP)

Equipment we use:

Weather-station
Ambient WS-1400-IP

Weather-program
Meteobridge

Weather-server
TP-LINK TL-MR3020

Ambient WS-1400-IP

Meteobridge

TP-LINK TL-MR3020